createdAt,value
2019-04-25T00:02:05.406Z,1.13
2019-04-25T00:04:53.999Z,1.00
2019-04-25T00:07:43.024Z,1.00
2019-04-25T00:10:32.187Z,1.00
2019-04-25T00:13:21.683Z,1.10
2019-04-25T00:16:11.617Z,1.00
2019-04-25T00:19:01.736Z,1.20
2019-04-25T00:21:59.351Z,1.57
2019-04-25T00:24:58.951Z,0.90
2019-04-25T00:27:47.171Z,0.80
2019-04-25T00:30:35.646Z,1.00
2019-04-25T00:33:24.236Z,1.00
2019-04-25T00:36:12.369Z,1.00
2019-04-25T00:39:02.011Z,1.30
2019-04-25T00:41:51.980Z,0.90
2019-04-25T00:44:42.504Z,1.43
2019-04-25T00:47:29.502Z,1.20
2019-04-25T00:50:17.480Z,0.93
2019-04-25T00:53:05.569Z,1.00
2019-04-25T00:55:53.876Z,1.20
2019-04-25T00:58:54.303Z,0.90
2019-04-25T01:02:07.507Z,1.17
2019-04-25T01:04:55.003Z,1.00
2019-04-25T01:07:44.249Z,1.10
2019-04-25T01:10:32.967Z,0.90
2019-04-25T01:13:22.336Z,1.50
2019-04-25T01:16:11.956Z,1.20
2019-04-25T01:19:00.587Z,1.30
2019-04-25T01:21:49.183Z,0.90
2019-04-25T01:24:36.931Z,1.20
2019-04-25T01:27:25.095Z,1.70
2019-04-25T01:30:15.011Z,1.40
2019-04-25T01:33:03.769Z,1.43
2019-04-25T01:36:11.116Z,1.70
2019-04-25T01:39:07.840Z,1.60
2019-04-25T01:42:20.787Z,0.97
2019-04-25T01:45:09.486Z,1.43
2019-04-25T01:47:57.014Z,1.40
2019-04-25T01:50:45.532Z,1.60
2019-04-25T01:53:33.915Z,1.53
2019-04-25T01:56:24.807Z,1.67
2019-04-25T01:59:15.069Z,1.90
2019-04-25T02:02:06.734Z,1.93
2019-04-25T02:04:56.837Z,1.70
2019-04-25T02:07:44.498Z,1.83
2019-04-25T02:10:32.386Z,1.50
2019-04-25T02:13:23.630Z,1.63
2019-04-25T02:16:14.197Z,2.03
2019-04-25T02:19:03.998Z,1.70
2019-04-25T02:21:54.504Z,1.50
2019-04-25T02:24:43.706Z,1.80
2019-04-25T02:27:34.115Z,1.83
2019-04-25T02:30:25.275Z,2.30
2019-04-25T02:33:14.215Z,1.90
2019-04-25T02:36:08.232Z,2.80
2019-04-25T02:38:54.154Z,2.00
2019-04-25T02:41:44.358Z,1.60
2019-04-25T02:44:34.544Z,1.80
2019-04-25T02:47:36.721Z,1.90
2019-04-25T02:50:44.114Z,2.13
2019-04-25T02:53:37.412Z,1.90
2019-04-25T02:56:33.098Z,2.27
2019-04-25T02:59:15.051Z,1.90
2019-04-25T03:02:06.837Z,2.20
2019-04-25T03:04:54.524Z,2.23
2019-04-25T03:07:44.519Z,2.27
2019-04-25T03:10:34.944Z,1.83
2019-04-25T03:13:24.614Z,1.70
2019-04-25T03:16:14.009Z,2.20
2019-04-25T03:19:26.347Z,1.73
2019-04-25T03:22:16.131Z,1.80
2019-04-25T03:25:09.989Z,2.60
2019-04-25T03:27:55.356Z,2.10
2019-04-25T03:30:44.897Z,2.00
2019-04-25T03:33:37.733Z,2.20
2019-04-25T03:36:23.867Z,2.73
2019-04-25T03:39:14.425Z,2.23
2019-04-25T03:42:02.256Z,2.43
2019-04-25T03:44:50.947Z,2.27
2019-04-25T03:47:38.862Z,2.60
2019-04-25T03:50:26.950Z,2.87
2019-04-25T03:53:14.843Z,2.23
2019-04-25T03:56:05.978Z,2.60
2019-04-25T03:58:54.018Z,2.10
2019-04-25T04:01:41.827Z,2.80
2019-04-25T04:04:30.535Z,3.57
2019-04-25T04:07:18.359Z,2.40
2019-04-25T04:10:07.907Z,2.07
2019-04-25T04:12:55.704Z,2.37
2019-04-25T04:15:44.036Z,2.30
2019-04-25T04:18:41.343Z,2.23
2019-04-25T04:21:46.972Z,2.87
2019-04-25T04:24:43.995Z,2.20
2019-04-25T04:27:33.663Z,2.27
2019-04-25T04:30:24.064Z,2.50
2019-04-25T04:33:23.171Z,2.60
2019-04-25T04:36:01.649Z,2.83
2019-04-25T04:38:50.367Z,2.90
2019-04-25T04:41:38.812Z,2.13
2019-04-25T04:44:27.013Z,2.40
2019-04-25T04:47:15.486Z,2.10
2019-04-25T04:50:03.881Z,2.13
2019-04-25T04:52:51.684Z,2.30
2019-04-25T04:55:40.074Z,1.90
2019-04-25T04:58:28.251Z,1.53
2019-04-25T05:01:18.648Z,1.60
2019-04-25T05:04:25.114Z,1.50
2019-04-25T05:07:33.833Z,1.20
2019-04-25T05:10:23.342Z,1.90
2019-04-25T05:13:12.189Z,1.50
2019-04-25T05:15:59.887Z,1.60
2019-04-25T05:18:48.102Z,1.60
2019-04-25T05:21:36.523Z,1.60
2019-04-25T05:24:26.283Z,1.73
2019-04-25T05:27:16.669Z,1.23
2019-04-25T05:30:05.575Z,1.60
2019-04-25T05:32:54.349Z,1.77
2019-04-25T05:35:42.110Z,1.57
2019-04-25T05:38:29.598Z,2.10
2019-04-25T05:41:55.222Z,1.70
2019-04-25T05:44:44.042Z,1.33
2019-04-25T05:47:33.235Z,1.50
2019-04-25T05:50:20.807Z,1.37
2019-04-25T05:53:08.831Z,1.20
2019-04-25T05:55:56.566Z,1.33
2019-04-25T05:58:45.135Z,1.00
2019-04-25T06:01:34.345Z,1.60
2019-04-25T06:04:24.622Z,1.30
2019-04-25T06:07:14.356Z,1.30
2019-04-25T06:10:22.203Z,1.73
2019-04-25T06:13:28.825Z,1.60
2019-04-25T06:16:30.475Z,1.27
2019-04-25T06:19:40.020Z,1.40
2019-04-25T06:22:49.559Z,1.33
2019-04-25T06:25:39.828Z,1.43
2019-04-25T06:28:29.175Z,1.50
2019-04-25T06:31:17.487Z,1.50
2019-04-25T06:34:05.770Z,1.27
2019-04-25T06:36:54.187Z,1.27
2019-04-25T06:39:44.257Z,1.67
2019-04-25T06:42:34.356Z,1.80
2019-04-25T06:45:50.795Z,1.83
2019-04-25T06:48:48.408Z,1.20
2019-04-25T06:51:49.403Z,1.40
2019-04-25T06:54:37.615Z,1.50
2019-04-25T06:57:27.001Z,1.40
2019-04-25T07:00:16.862Z,1.30
2019-04-25T07:03:05.313Z,1.40
2019-04-25T07:05:53.581Z,1.20
2019-04-25T07:08:42.994Z,1.57
2019-04-25T07:11:31.406Z,1.20
2019-04-25T07:14:19.493Z,1.20
2019-04-25T07:17:07.679Z,1.27
2019-04-25T07:19:55.200Z,1.10
2019-04-25T07:22:43.811Z,1.60
2019-04-25T07:25:35.786Z,1.40
2019-04-25T07:28:45.174Z,1.00
2019-04-25T07:31:44.405Z,1.10
2019-04-25T07:34:34.136Z,0.90
2019-04-25T07:37:22.276Z,1.13
2019-04-25T07:40:11.668Z,1.27
2019-04-25T07:42:59.805Z,1.43
2019-04-25T07:45:47.640Z,1.10
2019-04-25T07:48:37.134Z,1.20
2019-04-25T07:51:26.805Z,1.13
2019-04-25T07:54:15.202Z,1.47
2019-04-25T07:57:03.698Z,1.27
2019-04-25T07:59:53.715Z,1.33
2019-04-25T08:02:43.544Z,1.27
2019-04-25T08:05:31.803Z,1.30
2019-04-25T08:08:20.583Z,1.50
2019-04-25T08:11:09.371Z,1.17
2019-04-25T08:14:12.391Z,1.20
2019-04-25T08:17:03.676Z,1.70
2019-04-25T08:19:54.270Z,1.10
2019-04-25T08:22:52.978Z,1.37
2019-04-25T08:25:37.373Z,1.27
2019-04-25T08:28:23.678Z,0.97
2019-04-25T08:31:13.437Z,1.23
2019-04-25T08:34:03.636Z,1.33
2019-04-25T08:36:52.080Z,1.07
2019-04-25T08:39:40.760Z,1.10
2019-04-25T08:42:29.509Z,1.67
2019-04-25T08:45:19.016Z,0.90
2019-04-25T08:48:07.404Z,1.07
2019-04-25T08:51:03.657Z,1.27
2019-04-25T08:53:58.167Z,1.23
2019-04-25T08:56:46.463Z,1.90
2019-04-25T08:59:53.052Z,1.00
2019-04-25T09:02:47.791Z,1.13
2019-04-25T09:05:40.381Z,1.07
2019-04-25T09:08:28.359Z,1.03
2019-04-25T09:11:16.667Z,1.10
2019-04-25T09:14:05.502Z,1.10
2019-04-25T09:16:53.494Z,1.30
2019-04-25T09:19:42.016Z,1.13
2019-04-25T09:22:30.043Z,1.10
2019-04-25T09:25:18.895Z,0.80
2019-04-25T09:28:07.247Z,1.00
2019-04-25T09:30:55.717Z,1.07
2019-04-25T09:33:46.395Z,1.27
2019-04-25T09:36:33.967Z,1.00
2019-04-25T09:39:33.598Z,1.00
2019-04-25T09:42:21.237Z,1.77
2019-04-25T09:45:28.678Z,1.00
2019-04-25T09:48:35.596Z,1.20
2019-04-25T09:51:28.067Z,0.80
2019-04-25T09:54:30.862Z,1.17
2019-04-25T09:57:36.383Z,0.97
2019-04-25T10:00:29.667Z,0.93
2019-04-25T10:03:18.281Z,1.50
2019-04-25T10:06:05.915Z,1.07
2019-04-25T10:08:54.474Z,0.87
2019-04-25T10:11:43.926Z,1.27
2019-04-25T10:15:04.476Z,0.90
2019-04-25T10:17:53.066Z,1.53
2019-04-25T10:20:41.329Z,1.77
2019-04-25T10:23:29.394Z,1.20
2019-04-25T10:26:21.406Z,2.20
2019-04-25T10:29:09.816Z,0.80
2019-04-25T10:31:57.478Z,1.00
2019-04-25T10:34:46.082Z,1.50
2019-04-25T10:37:35.326Z,0.80
2019-04-25T10:40:25.077Z,0.83
2019-04-25T10:43:14.236Z,0.90
2019-04-25T10:46:03.476Z,0.80
2019-04-25T10:48:54.034Z,0.80
2019-04-25T10:51:42.728Z,0.90
2019-04-25T10:54:31.066Z,1.07
2019-04-25T10:57:19.950Z,1.27
2019-04-25T11:00:14.929Z,1.10
2019-04-25T11:03:18.782Z,0.90
2019-04-25T11:06:07.174Z,0.80
2019-04-25T11:08:56.634Z,0.77
2019-04-25T11:11:45.854Z,1.10
2019-04-25T11:14:34.218Z,0.90
2019-04-25T11:17:24.240Z,0.90
2019-04-25T11:20:25.204Z,0.80
2019-04-25T11:23:13.981Z,0.83
2019-04-25T11:26:03.746Z,1.50
2019-04-25T11:28:52.450Z,0.60
2019-04-25T11:31:48.850Z,0.80
2019-04-25T11:34:37.232Z,1.30
2019-04-25T11:37:26.618Z,1.03
2019-04-25T11:40:23.523Z,0.93
2019-04-25T11:43:11.824Z,0.70
2019-04-25T11:46:00.199Z,0.90
2019-04-25T11:48:48.471Z,0.90
2019-04-25T11:51:37.120Z,1.10
2019-04-25T11:54:25.463Z,0.80
2019-04-25T11:57:13.950Z,0.70
2019-04-25T12:00:04.208Z,1.10
2019-04-25T12:02:52.779Z,1.00
2019-04-25T12:05:40.938Z,1.23
2019-04-25T12:08:29.284Z,1.30
2019-04-25T12:11:17.429Z,0.80
2019-04-25T12:14:05.732Z,1.17
2019-04-25T12:16:56.131Z,1.10
2019-04-25T12:19:43.786Z,0.90
2019-04-25T12:22:31.847Z,1.10
2019-04-25T12:25:20.126Z,0.80
2019-04-25T12:28:07.820Z,0.90
2019-04-25T12:30:56.420Z,0.80
2019-04-25T12:33:47.651Z,1.00
2019-04-25T12:36:34.903Z,0.80
2019-04-25T12:39:24.272Z,0.70
2019-04-25T12:42:14.470Z,1.10
2019-04-25T12:45:34.650Z,0.80
2019-04-25T12:48:23.441Z,0.90
2019-04-25T12:51:13.077Z,0.90
2019-04-25T12:54:01.775Z,1.00
2019-04-25T12:56:49.321Z,0.97
2019-04-25T12:59:37.183Z,0.90
2019-04-25T13:02:25.317Z,1.37
2019-04-25T13:05:14.163Z,0.97
2019-04-25T13:08:04.715Z,0.85
2019-04-25T13:10:51.528Z,0.98
2019-04-25T13:13:39.908Z,1.45
2019-04-25T13:16:27.561Z,1.42
2019-04-25T13:19:23.787Z,0.90
2019-04-25T13:22:06.527Z,1.10
2019-04-25T13:24:55.299Z,0.97
2019-04-25T13:28:04.075Z,1.00
2019-04-25T13:31:23.772Z,0.70
2019-04-25T13:34:19.728Z,0.70
2019-04-25T13:37:08.947Z,1.00
2019-04-25T13:39:58.119Z,0.83
2019-04-25T13:42:46.575Z,0.70
2019-04-25T13:45:34.275Z,0.70
2019-04-25T13:48:25.535Z,0.90
2019-04-25T13:51:11.668Z,0.70
2019-04-25T13:53:59.771Z,0.60
2019-04-25T13:56:47.654Z,0.80
2019-04-25T13:59:35.169Z,0.90
2019-04-25T14:02:24.648Z,0.80
2019-04-25T14:05:14.687Z,0.70
2019-04-25T14:08:03.430Z,0.90
2019-04-25T14:10:51.442Z,0.90
2019-04-25T14:13:39.075Z,0.80
2019-04-25T14:16:52.443Z,0.80
2019-04-25T14:19:48.654Z,0.90
2019-04-25T14:22:36.637Z,1.10
2019-04-25T14:25:26.223Z,0.70
2019-04-25T14:28:14.237Z,0.80
2019-04-25T14:31:02.457Z,0.80
2019-04-25T14:33:51.769Z,0.93
2019-04-25T14:36:40.005Z,0.80
2019-04-25T14:39:28.339Z,1.00
2019-04-25T14:42:16.687Z,0.70
2019-04-25T14:45:05.798Z,1.00
2019-04-25T14:47:54.516Z,0.87
2019-04-25T14:50:42.714Z,1.00
2019-04-25T14:53:33.557Z,1.00
2019-04-25T14:56:35.687Z,0.70
2019-04-25T14:59:24.435Z,1.07
2019-04-25T15:02:13.307Z,0.90
2019-04-25T15:05:01.357Z,0.90
2019-04-25T15:07:49.843Z,1.00
2019-04-25T15:10:38.387Z,0.80
2019-04-25T15:13:26.123Z,1.23
2019-04-25T15:16:14.551Z,1.10
2019-04-25T15:19:02.984Z,0.80
2019-04-25T15:21:50.575Z,1.00
2019-04-25T15:24:39.182Z,1.27
2019-04-25T15:27:26.688Z,0.97
2019-04-25T15:30:20.884Z,0.73
2019-04-25T15:33:08.992Z,0.80
2019-04-25T15:36:21.132Z,0.70
2019-04-25T15:39:43.165Z,1.00
2019-04-25T15:42:39.407Z,0.70
2019-04-25T15:45:39.535Z,0.80
2019-04-25T15:48:27.520Z,0.90
2019-04-25T15:51:16.136Z,0.87
2019-04-25T15:54:04.404Z,0.70
2019-04-25T15:56:52.821Z,1.00
2019-04-25T15:59:40.997Z,0.93
2019-04-25T16:02:30.248Z,1.10
2019-04-25T16:05:19.029Z,1.00
2019-04-25T16:08:08.042Z,0.90
2019-04-25T16:10:56.620Z,0.80
2019-04-25T16:13:45.198Z,0.80
2019-04-25T16:16:33.289Z,0.80
2019-04-25T16:19:20.971Z,1.03
2019-04-25T16:22:09.275Z,1.33
2019-04-25T16:24:57.538Z,1.00
2019-04-25T16:27:46.148Z,1.57
2019-04-25T16:30:34.639Z,1.00
2019-04-25T16:33:22.827Z,1.00
2019-04-25T16:36:11.447Z,1.17
2019-04-25T16:38:58.991Z,1.30
2019-04-25T16:41:47.483Z,0.70
2019-04-25T16:44:36.152Z,1.17
2019-04-25T16:47:26.480Z,1.20
2019-04-25T16:50:16.015Z,0.93
2019-04-25T16:53:04.044Z,0.97
2019-04-25T16:55:52.380Z,1.87
2019-04-25T16:58:40.808Z,0.90
2019-04-25T17:01:30.255Z,1.00
2019-04-25T17:04:19.905Z,1.30
2019-04-25T17:07:08.737Z,1.30
2019-04-25T17:09:57.060Z,1.50
2019-04-25T17:12:45.596Z,1.80
2019-04-25T17:15:41.718Z,1.10
2019-04-25T17:18:38.259Z,1.10
2019-04-25T17:21:26.245Z,1.10
2019-04-25T17:24:14.276Z,0.80
2019-04-25T17:27:02.464Z,1.13
2019-04-25T17:29:50.012Z,1.30
2019-04-25T17:32:57.487Z,0.97
2019-04-25T17:35:53.291Z,2.00
2019-04-25T17:38:48.059Z,1.87
2019-04-25T17:41:36.376Z,1.50
2019-04-25T17:44:23.976Z,1.23
2019-04-25T17:47:11.552Z,1.83
2019-04-25T17:49:59.544Z,1.03
2019-04-25T17:52:47.967Z,1.00
2019-04-25T17:55:37.369Z,1.23
2019-04-25T17:58:25.692Z,6.17
2019-04-25T18:01:16.503Z,1.10
2019-04-25T18:04:05.162Z,1.47
2019-04-25T18:06:53.703Z,1.40
2019-04-25T18:09:41.288Z,1.30
2019-04-25T18:12:29.764Z,1.63
2019-04-25T18:15:24.355Z,1.30
2019-04-25T18:18:20.360Z,1.30
2019-04-25T18:21:08.019Z,1.60
2019-04-25T18:24:15.543Z,1.30
2019-04-25T18:27:12.539Z,1.23
2019-04-25T18:30:01.165Z,1.20
2019-04-25T18:33:09.916Z,1.23
2019-04-25T18:35:49.004Z,1.77
2019-04-25T18:38:48.768Z,1.50
2019-04-25T18:41:50.268Z,1.30
2019-04-25T18:44:38.320Z,1.30
2019-04-25T18:47:27.156Z,1.40
2019-04-25T18:50:17.361Z,1.60
2019-04-25T18:53:33.751Z,1.40
2019-04-25T18:56:34.983Z,1.63
2019-04-25T18:59:48.254Z,1.93
2019-04-25T19:02:49.135Z,1.67
2019-04-25T19:05:43.909Z,1.63
2019-04-25T19:08:32.112Z,2.50
2019-04-25T19:11:20.970Z,2.17
2019-04-25T19:14:09.299Z,2.80
2019-04-25T19:16:56.888Z,2.53
2019-04-25T19:19:45.649Z,2.00
2019-04-25T19:22:33.289Z,2.07
2019-04-25T19:25:21.728Z,1.60
2019-04-25T19:28:09.886Z,2.70
2019-04-25T19:30:58.448Z,1.90
2019-04-25T19:33:47.550Z,1.57
2019-04-25T19:36:35.607Z,1.20
2019-04-25T19:39:25.643Z,1.47
2019-04-25T19:42:23.678Z,1.00
2019-04-25T19:45:12.671Z,1.10
2019-04-25T19:48:00.813Z,1.67
2019-04-25T19:50:48.829Z,1.20
2019-04-25T19:53:36.493Z,1.00
2019-04-25T19:56:24.785Z,1.20
2019-04-25T19:59:13.971Z,2.03
2019-04-25T20:02:06.630Z,2.00
2019-04-25T20:05:00.280Z,0.90
2019-04-25T20:07:53.445Z,1.20
2019-04-25T20:10:46.866Z,0.90
2019-04-25T20:13:34.284Z,2.07
2019-04-25T20:16:22.475Z,1.53
2019-04-25T20:19:10.895Z,1.50
2019-04-25T20:21:59.216Z,1.10
2019-04-25T20:24:46.872Z,1.33
2019-04-25T20:27:35.405Z,1.10
2019-04-25T20:30:23.809Z,0.90
2019-04-25T20:33:12.260Z,2.10
2019-04-25T20:36:00.403Z,2.10
2019-04-25T20:38:49.106Z,1.27
2019-04-25T20:41:37.587Z,2.20
2019-04-25T20:44:25.447Z,2.27
2019-04-25T20:47:13.371Z,1.90
2019-04-25T20:50:01.889Z,2.27
2019-04-25T20:52:50.618Z,1.87
2019-04-25T20:55:38.342Z,2.13
2019-04-25T20:58:27.170Z,2.20
2019-04-25T21:01:15.552Z,1.80
2019-04-25T21:04:12.662Z,1.47
2019-04-25T21:06:53.127Z,1.73
2019-04-25T21:09:41.542Z,2.63
2019-04-25T21:12:30.251Z,3.07
2019-04-25T21:15:35.219Z,3.30
2019-04-25T21:18:30.423Z,3.10
2019-04-25T21:21:18.853Z,3.50
2019-04-25T21:24:07.091Z,3.67
2019-04-25T21:26:55.614Z,3.10
2019-04-25T21:29:44.475Z,3.37
2019-04-25T21:32:50.886Z,2.93
2019-04-25T21:35:41.003Z,2.10
2019-04-25T21:38:29.503Z,2.30
2019-04-25T21:41:55.629Z,2.40
2019-04-25T21:44:43.930Z,1.93
2019-04-25T21:47:32.753Z,1.90
2019-04-25T21:50:20.899Z,2.57
2019-04-25T21:53:09.671Z,2.80
2019-04-25T21:55:58.479Z,3.00
2019-04-25T21:58:47.635Z,4.00
2019-04-25T22:01:39.093Z,3.20
2019-04-25T22:04:38.226Z,2.97
2019-04-25T22:07:17.169Z,4.10
2019-04-25T22:10:06.413Z,3.03
2019-04-25T22:12:54.712Z,3.80
2019-04-25T22:15:43.508Z,5.03
2019-04-25T22:18:32.578Z,4.20
2019-04-25T22:21:20.450Z,4.93
2019-04-25T22:24:12.836Z,4.90
2019-04-25T22:27:03.246Z,4.07
2019-04-25T22:29:58.806Z,3.30
2019-04-25T22:32:55.178Z,4.57
2019-04-25T22:36:04.770Z,3.20
2019-04-25T22:39:11.172Z,2.27
2019-04-25T22:42:00.925Z,2.13
2019-04-25T22:44:50.714Z,2.33
2019-04-25T22:47:39.013Z,2.23
2019-04-25T22:50:27.023Z,2.33
2019-04-25T22:53:22.619Z,2.10
2019-04-25T22:56:05.352Z,2.30
2019-04-25T22:58:53.878Z,2.40
2019-04-25T23:02:00.875Z,2.87
2019-04-25T23:05:09.293Z,2.80
2019-04-25T23:07:51.003Z,3.00
2019-04-25T23:10:39.672Z,2.80
2019-04-25T23:13:27.556Z,3.00
2019-04-25T23:16:16.372Z,2.20
2019-04-25T23:19:05.090Z,2.43
2019-04-25T23:21:52.995Z,2.77
2019-04-25T23:24:46.811Z,3.00
2019-04-25T23:27:44.178Z,2.50
2019-04-25T23:30:37.387Z,2.47
2019-04-25T23:33:25.683Z,2.27
2019-04-25T23:36:15.388Z,2.07
2019-04-25T23:39:06.485Z,2.03
2019-04-25T23:41:54.791Z,2.13
2019-04-25T23:44:43.431Z,2.37
2019-04-25T23:47:31.859Z,1.70
2019-04-25T23:50:20.671Z,2.03
2019-04-25T23:53:09.177Z,2.10
2019-04-25T23:55:57.768Z,2.63
2019-04-25T23:58:46.116Z,2.43
